createdAt,value
2017-12-30T00:00:35.061Z,100065.05
2017-12-30T00:03:02.645Z,100069.35
2017-12-30T00:05:30.227Z,100066.21
2017-12-30T00:07:57.815Z,100060.72
2017-12-30T00:10:25.405Z,100066.42
2017-12-30T00:12:53.608Z,100074.05
2017-12-30T00:15:21.222Z,100073.61
2017-12-30T00:17:48.906Z,100080.13
2017-12-30T00:20:16.568Z,100076.38
2017-12-30T00:22:44.149Z,100072.93
2017-12-30T00:25:11.762Z,100077.05
2017-12-30T00:27:39.359Z,100079.26
2017-12-30T00:30:07.031Z,100084.49
2017-12-30T00:32:34.642Z,100075.91
2017-12-30T00:35:02.264Z,100092.68
2017-12-30T00:37:29.839Z,100090.15
2017-12-30T00:39:57.415Z,100092.61
2017-12-30T00:42:24.999Z,100096.65
2017-12-30T00:44:52.575Z,100096.05
2017-12-30T00:47:20.185Z,100093.45
2017-12-30T00:49:47.809Z,100092.04
2017-12-30T00:52:15.478Z,100085.77
2017-12-30T00:54:43.063Z,100091.56
2017-12-30T00:57:10.694Z,100094.61
2017-12-30T00:59:38.359Z,100091.87
2017-12-30T01:02:06.775Z,100092.97
2017-12-30T01:04:34.391Z,100089.60
2017-12-30T01:07:02.845Z,100091.06
2017-12-30T01:09:30.424Z,100092.94
2017-12-30T01:11:58.106Z,100089.09
2017-12-30T01:14:25.686Z,100088.77
2017-12-30T01:16:53.326Z,100091.01
2017-12-30T01:19:21.003Z,100092.91
2017-12-30T01:21:48.622Z,100089.00
2017-12-30T01:24:16.197Z,100081.75
2017-12-30T01:26:43.882Z,100080.22
2017-12-30T01:29:11.510Z,100077.19
2017-12-30T01:31:39.108Z,100084.89
2017-12-30T01:34:07.516Z,100081.73
2017-12-30T01:36:35.095Z,100079.25
2017-12-30T01:39:02.679Z,100079.35
2017-12-30T01:41:30.291Z,100077.22
2017-12-30T01:43:57.866Z,100076.70
2017-12-30T01:46:26.341Z,100070.78
2017-12-30T01:49:03.658Z,100067.48
2017-12-30T01:51:31.265Z,100070.87
2017-12-30T01:53:59.670Z,100070.86
2017-12-30T01:56:27.269Z,100071.91
2017-12-30T01:58:54.851Z,100065.23
2017-12-30T02:01:22.425Z,100067.95
2017-12-30T02:03:50.003Z,100074.20
2017-12-30T02:06:17.655Z,100070.89
2017-12-30T02:08:45.370Z,100068.29
2017-12-30T02:11:12.954Z,100076.66
2017-12-30T02:13:40.535Z,100079.53
2017-12-30T02:16:08.138Z,100075.22
2017-12-30T02:18:35.758Z,100078.56
2017-12-30T02:21:03.457Z,100072.43
2017-12-30T02:23:31.066Z,100076.16
2017-12-30T02:25:58.698Z,100081.39
2017-12-30T02:28:26.309Z,100079.95
2017-12-30T02:30:53.890Z,100075.91
2017-12-30T02:33:21.536Z,100073.84
2017-12-30T02:35:49.218Z,100083.32
2017-12-30T02:38:16.798Z,100086.29
2017-12-30T02:40:44.373Z,100086.09
2017-12-30T02:43:12.135Z,100084.67
2017-12-30T02:45:39.750Z,100086.45
2017-12-30T02:48:07.366Z,100099.38
2017-12-30T02:50:35.737Z,100097.33
2017-12-30T02:53:03.318Z,100106.77
2017-12-30T02:55:30.906Z,100096.84
2017-12-30T02:57:58.569Z,100098.44
2017-12-30T03:00:26.201Z,100094.34
2017-12-30T03:02:53.929Z,100078.85
2017-12-30T03:05:21.567Z,100076.87
2017-12-30T03:07:49.143Z,100081.44
2017-12-30T03:10:16.718Z,100076.12
2017-12-30T03:12:44.404Z,100079.63
2017-12-30T03:15:11.982Z,100073.84
2017-12-30T03:17:39.769Z,100073.98
2017-12-30T03:20:07.598Z,100074.05
2017-12-30T03:22:35.174Z,100076.94
2017-12-30T03:25:02.795Z,100073.66
2017-12-30T03:27:30.370Z,100069.40
2017-12-30T03:29:57.946Z,100065.58
2017-12-30T03:32:25.645Z,100066.92
2017-12-30T03:34:53.418Z,100067.45
2017-12-30T03:37:21.014Z,100068.73
2017-12-30T03:39:48.781Z,100062.09
2017-12-30T03:42:16.351Z,100069.12
2017-12-30T03:44:44.703Z,100065.59
2017-12-30T03:47:12.282Z,100063.37
2017-12-30T03:49:39.860Z,100064.14
2017-12-30T03:52:07.444Z,100061.97
2017-12-30T03:54:35.011Z,100068.91
2017-12-30T03:57:02.693Z,100066.55
2017-12-30T03:59:31.174Z,100063.22
2017-12-30T04:01:59.450Z,100062.06
2017-12-30T04:04:27.998Z,100052.37
2017-12-30T04:06:55.604Z,100046.78
2017-12-30T04:09:23.173Z,100040.80
2017-12-30T04:11:50.748Z,100039.73
2017-12-30T04:14:18.413Z,100049.08
2017-12-30T04:16:45.986Z,100052.53
2017-12-30T04:19:13.606Z,100054.02
2017-12-30T04:21:41.263Z,100056.50
2017-12-30T04:24:08.931Z,100061.17
2017-12-30T04:26:36.594Z,100065.84
2017-12-30T04:29:04.257Z,100067.41
2017-12-30T04:31:32.869Z,100063.25
2017-12-30T04:34:00.483Z,100058.77
2017-12-30T04:36:28.162Z,100062.51
2017-12-30T04:38:55.829Z,100050.39
2017-12-30T04:41:23.490Z,100050.12
2017-12-30T04:43:51.155Z,100040.30
2017-12-30T04:46:18.817Z,100044.09
2017-12-30T04:48:46.399Z,100042.55
2017-12-30T04:51:13.977Z,100032.38
2017-12-30T04:53:41.550Z,100036.08
2017-12-30T04:56:09.163Z,100038.59
2017-12-30T04:58:36.755Z,100032.81
2017-12-30T05:01:04.487Z,100037.66
2017-12-30T05:03:32.066Z,100039.19
2017-12-30T05:05:59.715Z,100040.73
2017-12-30T05:08:27.337Z,100044.53
2017-12-30T05:10:54.992Z,100038.30
2017-12-30T05:13:22.610Z,100035.86
2017-12-30T05:15:50.318Z,100030.27
2017-12-30T05:18:17.980Z,100038.50
2017-12-30T05:20:45.585Z,100034.14
2017-12-30T05:23:13.253Z,100032.91
2017-12-30T05:25:40.909Z,100045.63
2017-12-30T05:28:08.573Z,100033.84
2017-12-30T05:30:36.245Z,100028.15
2017-12-30T05:33:03.939Z,100040.17
2017-12-30T05:35:31.561Z,100050.95
2017-12-30T05:37:59.226Z,100047.53
2017-12-30T05:40:27.624Z,100055.77
2017-12-30T05:42:55.190Z,100061.02
2017-12-30T05:45:22.990Z,100061.17
2017-12-30T05:47:50.734Z,100072.40
2017-12-30T05:50:18.298Z,100069.68
2017-12-30T05:52:46.846Z,100066.95
2017-12-30T05:55:14.427Z,100058.78
2017-12-30T05:57:42.002Z,100054.86
2017-12-30T06:00:10.434Z,100059.77
2017-12-30T06:02:38.105Z,100064.00
2017-12-30T06:05:05.778Z,100059.36
2017-12-30T06:07:33.473Z,100054.69
2017-12-30T06:10:01.040Z,100049.09
2017-12-30T06:12:28.659Z,100048.14
2017-12-30T06:14:56.321Z,100059.52
2017-12-30T06:17:23.881Z,100054.80
2017-12-30T06:19:51.446Z,100056.73
2017-12-30T06:22:19.214Z,100051.67
2017-12-30T06:24:46.834Z,100053.38
2017-12-30T06:27:14.440Z,100046.63
2017-12-30T06:29:42.097Z,100040.63
2017-12-30T06:32:09.758Z,100045.57
2017-12-30T06:34:37.337Z,100045.75
2017-12-30T06:37:04.945Z,100049.81
2017-12-30T06:39:32.785Z,100049.45
2017-12-30T06:42:00.353Z,100052.64
2017-12-30T06:44:27.928Z,100049.87
2017-12-30T06:46:55.604Z,100057.27
2017-12-30T06:49:23.177Z,100058.64
2017-12-30T06:51:50.823Z,100071.00
2017-12-30T06:54:18.394Z,100072.17
2017-12-30T06:56:46.037Z,100075.26
2017-12-30T06:59:13.601Z,100073.01
2017-12-30T07:01:41.466Z,100073.55
2017-12-30T07:04:09.038Z,100064.57
2017-12-30T07:06:36.604Z,100074.73
2017-12-30T07:09:04.297Z,100063.98
2017-12-30T07:11:31.879Z,100065.30
2017-12-30T07:13:59.483Z,100060.06
2017-12-30T07:16:27.141Z,100060.68
2017-12-30T07:18:55.412Z,100063.58
2017-12-30T07:21:23.509Z,100054.14
2017-12-30T07:23:51.865Z,100053.24
2017-12-30T07:26:20.421Z,100035.88
2017-12-30T07:28:47.986Z,100041.86
2017-12-30T07:31:15.578Z,100040.16
2017-12-30T07:33:43.218Z,100038.34
2017-12-30T07:36:11.713Z,100040.89
2017-12-30T07:38:40.155Z,100038.70
2017-12-30T07:41:08.784Z,100042.35
2017-12-30T07:43:37.881Z,100049.55
2017-12-30T07:46:05.699Z,100044.22
2017-12-30T07:48:33.474Z,100046.97
2017-12-30T07:51:01.517Z,100049.06
2017-12-30T07:53:29.405Z,100049.63
2017-12-30T07:55:59.061Z,100042.56
2017-12-30T07:58:26.738Z,100035.92
2017-12-30T08:00:54.418Z,100039.79
2017-12-30T08:03:22.183Z,100031.11
2017-12-30T08:05:49.960Z,100027.36
2017-12-30T08:08:17.864Z,100028.80
2017-12-30T08:10:46.147Z,100032.75
2017-12-30T08:13:13.861Z,100029.94
2017-12-30T08:15:41.500Z,100021.48
2017-12-30T08:18:09.174Z,100025.12
2017-12-30T08:20:37.043Z,100022.81
2017-12-30T08:23:05.647Z,100010.80
2017-12-30T08:25:33.504Z,100018.36
2017-12-30T08:28:01.213Z,100019.26
2017-12-30T08:30:29.080Z,100016.00
2017-12-30T08:32:57.079Z,100018.34
2017-12-30T08:35:24.758Z,100019.21
2017-12-30T08:37:52.323Z,100019.09
2017-12-30T08:40:19.889Z,100021.47
2017-12-30T08:42:47.542Z,100022.55
2017-12-30T08:45:15.087Z,100021.66
2017-12-30T08:47:42.819Z,100014.81
2017-12-30T08:50:10.513Z,100009.05
2017-12-30T08:52:38.138Z,99998.87
2017-12-30T08:55:05.706Z,100010.72
2017-12-30T08:57:33.357Z,100003.67
2017-12-30T09:00:00.927Z,100001.19
2017-12-30T09:02:28.501Z,100001.61
2017-12-30T09:04:56.065Z,100002.02
2017-12-30T09:07:23.807Z,99995.47
2017-12-30T09:09:51.462Z,99999.03
2017-12-30T09:12:19.138Z,99995.69
2017-12-30T09:14:46.735Z,99991.42
2017-12-30T09:17:14.295Z,99996.91
2017-12-30T09:19:41.927Z,100001.08
2017-12-30T09:22:09.637Z,100001.53
2017-12-30T09:24:37.445Z,100000.30
2017-12-30T09:27:05.012Z,100002.69
2017-12-30T09:29:32.673Z,99996.46
2017-12-30T09:32:00.335Z,99999.17
2017-12-30T09:34:28.003Z,99994.46
2017-12-30T09:36:55.662Z,99986.22
2017-12-30T09:39:23.946Z,99983.84
2017-12-30T09:41:52.423Z,99982.30
2017-12-30T09:44:21.014Z,99967.75
2017-12-30T09:46:48.675Z,99971.85
2017-12-30T09:49:16.242Z,99964.74
2017-12-30T09:51:43.809Z,99955.81
2017-12-30T09:54:12.274Z,99962.41
2017-12-30T09:56:40.650Z,99964.51
2017-12-30T09:59:08.214Z,99953.56
2017-12-30T10:01:35.782Z,99950.25
2017-12-30T10:04:04.123Z,99954.30
2017-12-30T10:06:31.691Z,99953.91
2017-12-30T10:09:00.099Z,99943.88
2017-12-30T10:11:28.448Z,99937.31
2017-12-30T10:13:56.102Z,99939.41
2017-12-30T10:16:23.671Z,99937.08
2017-12-30T10:18:51.282Z,99927.59
2017-12-30T10:21:19.222Z,99929.33
2017-12-30T10:23:46.930Z,99919.08
2017-12-30T10:26:14.550Z,99912.52
2017-12-30T10:28:42.113Z,99906.59
2017-12-30T10:31:09.695Z,99897.32
2017-12-30T10:33:38.166Z,99893.41
2017-12-30T10:36:05.731Z,99892.88
2017-12-30T10:38:33.309Z,99887.22
2017-12-30T10:41:00.944Z,99899.28
2017-12-30T10:43:28.513Z,99879.95
2017-12-30T10:45:56.079Z,99873.55
2017-12-30T10:48:23.655Z,99868.68
2017-12-30T10:50:51.273Z,99871.86
2017-12-30T10:53:18.847Z,99864.73
2017-12-30T10:55:46.414Z,99858.67
2017-12-30T10:58:14.102Z,99863.08
2017-12-30T11:00:48.359Z,99854.94
2017-12-30T11:03:15.917Z,99847.25
2017-12-30T11:05:43.550Z,99850.77
2017-12-30T11:08:11.206Z,99843.54
2017-12-30T11:10:38.814Z,99834.91
2017-12-30T11:13:06.373Z,99830.70
2017-12-30T11:15:34.319Z,99817.35
2017-12-30T11:18:02.152Z,99816.62
2017-12-30T11:20:29.794Z,99808.92
2017-12-30T11:22:57.354Z,99802.55
2017-12-30T11:25:24.973Z,99789.72
2017-12-30T11:27:52.571Z,99791.25
2017-12-30T11:30:20.134Z,99794.47
2017-12-30T11:32:48.301Z,99781.91
2017-12-30T11:35:15.937Z,99784.34
2017-12-30T11:37:43.511Z,99782.13
2017-12-30T11:40:11.102Z,99772.71
2017-12-30T11:42:38.679Z,99763.89
2017-12-30T11:45:06.275Z,99756.18
2017-12-30T11:47:33.888Z,99758.52
2017-12-30T11:50:01.483Z,99753.30
2017-12-30T11:52:29.108Z,99745.83
2017-12-30T11:54:57.026Z,99735.67
2017-12-30T11:57:24.640Z,99736.22
2017-12-30T11:59:52.299Z,99729.09
2017-12-30T12:02:19.863Z,99725.06
2017-12-30T12:04:47.525Z,99709.33
2017-12-30T12:07:15.091Z,99708.30
2017-12-30T12:09:43.013Z,99701.48
2017-12-30T12:12:11.498Z,99698.55
2017-12-30T12:14:39.968Z,99685.19
2017-12-30T12:17:08.538Z,99690.70
2017-12-30T12:19:36.113Z,99685.37
2017-12-30T12:22:03.728Z,99683.16
2017-12-30T12:24:31.290Z,99676.58
2017-12-30T12:26:58.853Z,99679.27
2017-12-30T12:29:27.518Z,99661.97
2017-12-30T12:31:56.053Z,99655.22
2017-12-30T12:34:24.706Z,99653.63
2017-12-30T12:36:52.271Z,99646.75
2017-12-30T12:39:20.739Z,99643.11
2017-12-30T12:41:49.468Z,99642.42
2017-12-30T12:44:17.029Z,99638.27
2017-12-30T12:46:44.816Z,99634.36
2017-12-30T12:49:12.450Z,99622.59
2017-12-30T12:51:40.014Z,99616.66
2017-12-30T12:54:07.626Z,99614.41
2017-12-30T12:56:35.205Z,99621.22
2017-12-30T12:59:02.809Z,99615.59
2017-12-30T13:01:30.370Z,99606.80
2017-12-30T13:03:58.150Z,99599.39
2017-12-30T13:06:25.717Z,99593.64
2017-12-30T13:08:53.314Z,99590.41
2017-12-30T13:11:20.881Z,99596.03
2017-12-30T13:13:48.450Z,99589.78
2017-12-30T13:16:16.085Z,99578.88
2017-12-30T13:18:43.634Z,99582.50
2017-12-30T13:21:11.325Z,99579.79
2017-12-30T13:23:38.889Z,99580.53
2017-12-30T13:26:06.558Z,99568.65
2017-12-30T13:28:34.209Z,99568.00
2017-12-30T13:31:02.501Z,99570.28
2017-12-30T13:33:30.126Z,99565.30
2017-12-30T13:35:58.316Z,99568.60
2017-12-30T13:38:25.883Z,99575.53
2017-12-30T13:40:53.833Z,99578.66
2017-12-30T13:43:21.455Z,99582.69
2017-12-30T13:45:49.022Z,99568.80
2017-12-30T13:48:17.478Z,99564.27
2017-12-30T13:50:45.048Z,99563.84
2017-12-30T13:53:12.622Z,99550.13
2017-12-30T13:55:40.215Z,99541.72
2017-12-30T13:58:07.815Z,99536.70
2017-12-30T14:00:35.523Z,99536.39
2017-12-30T14:03:03.094Z,99526.65
2017-12-30T14:05:30.705Z,99529.82
2017-12-30T14:07:58.337Z,99530.50
2017-12-30T14:10:25.887Z,99524.66
2017-12-30T14:12:53.511Z,99526.34
2017-12-30T14:15:21.902Z,99538.03
2017-12-30T14:17:50.515Z,99547.77
2017-12-30T14:20:19.173Z,99547.20
2017-12-30T14:22:47.662Z,99549.95
2017-12-30T14:25:15.285Z,99539.48
2017-12-30T14:27:42.850Z,99540.39
2017-12-30T14:30:10.427Z,99534.64
2017-12-30T14:32:38.072Z,99517.95
2017-12-30T14:35:05.735Z,99502.27
2017-12-30T14:37:33.306Z,99495.95
2017-12-30T14:40:00.912Z,99485.65
2017-12-30T14:42:28.478Z,99491.31
2017-12-30T14:44:56.042Z,99475.30
2017-12-30T14:47:23.611Z,99466.40
2017-12-30T14:49:51.186Z,99451.98
2017-12-30T14:52:18.751Z,99456.62
2017-12-30T14:54:46.421Z,99462.09
2017-12-30T14:57:14.911Z,99453.02
2017-12-30T14:59:43.860Z,99452.89
2017-12-30T15:02:12.387Z,99447.27
2017-12-30T15:04:39.957Z,99450.80
2017-12-30T15:07:07.527Z,99441.70
2017-12-30T15:09:35.206Z,99445.47
2017-12-30T15:12:02.870Z,99440.91
2017-12-30T15:14:30.569Z,99433.88
2017-12-30T15:16:58.400Z,99419.52
2017-12-30T15:19:26.057Z,99426.64
2017-12-30T15:21:53.691Z,99425.23
2017-12-30T15:24:21.258Z,99425.95
2017-12-30T15:26:48.846Z,99424.96
2017-12-30T15:29:16.420Z,99434.72
2017-12-30T15:31:44.134Z,99417.40
2017-12-30T15:34:11.706Z,99402.84
2017-12-30T15:36:39.358Z,99396.73
2017-12-30T15:39:06.930Z,99395.61
2017-12-30T15:41:34.584Z,99392.99
2017-12-30T15:44:02.205Z,99393.00
2017-12-30T15:46:30.280Z,99392.72
2017-12-30T15:48:57.891Z,99378.00
2017-12-30T15:51:25.731Z,99376.87
2017-12-30T15:53:53.515Z,99375.89
2017-12-30T15:56:21.902Z,99377.03
2017-12-30T15:58:49.478Z,99365.06
2017-12-30T16:01:17.114Z,99371.52
2017-12-30T16:03:44.782Z,99364.91
2017-12-30T16:06:12.352Z,99359.30
2017-12-30T16:08:40.004Z,99357.92
2017-12-30T16:11:08.524Z,99349.04
2017-12-30T16:13:36.818Z,99348.23
2017-12-30T16:16:06.226Z,99355.05
2017-12-30T16:18:33.834Z,99357.41
2017-12-30T16:21:01.393Z,99345.93
2017-12-30T16:23:29.778Z,99343.61
2017-12-30T16:25:58.159Z,99338.82
2017-12-30T16:28:26.666Z,99338.09
2017-12-30T16:30:55.066Z,99338.70
2017-12-30T16:33:22.675Z,99319.81
2017-12-30T16:35:50.257Z,99330.72
2017-12-30T16:38:17.827Z,99324.41
2017-12-30T16:40:45.463Z,99319.09
2017-12-30T16:43:13.117Z,99311.53
2017-12-30T16:45:40.742Z,99311.34
2017-12-30T16:48:08.555Z,99315.83
2017-12-30T16:50:36.139Z,99310.30
2017-12-30T16:53:06.184Z,99324.03
2017-12-30T16:55:33.755Z,99321.06
2017-12-30T16:58:01.360Z,99314.18
2017-12-30T17:00:28.929Z,99320.58
2017-12-30T17:02:56.655Z,99309.73
2017-12-30T17:05:24.233Z,99307.82
2017-12-30T17:07:52.832Z,99316.18
2017-12-30T17:10:21.415Z,99305.27
2017-12-30T17:12:48.991Z,99285.56
2017-12-30T17:15:17.130Z,99306.36
2017-12-30T17:17:44.741Z,99298.13
2017-12-30T17:20:12.315Z,99297.52
2017-12-30T17:22:39.963Z,99305.83
2017-12-30T17:25:08.352Z,99301.78
2017-12-30T17:27:36.644Z,99304.28
2017-12-30T17:30:05.094Z,99290.61
2017-12-30T17:32:32.737Z,99297.00
2017-12-30T17:35:00.323Z,99296.02
2017-12-30T17:37:27.889Z,99286.97
2017-12-30T17:39:56.538Z,99271.22
2017-12-30T17:42:24.215Z,99269.73
2017-12-30T17:44:51.818Z,99272.89
2017-12-30T17:47:19.441Z,99277.77
2017-12-30T17:49:47.043Z,99272.82
2017-12-30T17:52:14.615Z,99273.95
2017-12-30T17:54:42.336Z,99276.21
2017-12-30T17:57:09.910Z,99272.76
2017-12-30T17:59:37.489Z,99275.97
2017-12-30T18:02:05.119Z,99279.78
2017-12-30T18:04:32.774Z,99283.58
2017-12-30T18:07:00.357Z,99274.69
2017-12-30T18:09:27.924Z,99278.53
2017-12-30T18:11:55.562Z,99277.48
2017-12-30T18:14:23.279Z,99273.69
2017-12-30T18:16:50.848Z,99262.98
2017-12-30T18:19:18.600Z,99274.27
2017-12-30T18:21:46.171Z,99280.94
2017-12-30T18:24:13.747Z,99252.77
2017-12-30T18:26:41.320Z,99297.41
2017-12-30T18:29:08.892Z,99282.05
2017-12-30T18:31:36.497Z,99271.22
2017-12-30T18:34:05.005Z,99281.02
2017-12-30T18:36:33.395Z,99273.91
2017-12-30T18:39:01.762Z,99269.26
2017-12-30T18:41:29.344Z,99261.97
2017-12-30T18:43:56.917Z,99246.92
2017-12-30T18:46:25.317Z,99248.11
2017-12-30T18:48:53.014Z,99246.58
2017-12-30T18:51:20.762Z,99242.99
2017-12-30T18:53:48.372Z,99251.66
2017-12-30T18:56:16.206Z,99265.07
2017-12-30T18:58:43.973Z,99261.41
2017-12-30T19:01:11.591Z,99278.84
2017-12-30T19:03:39.172Z,99267.60
2017-12-30T19:06:06.739Z,99265.89
2017-12-30T19:08:34.829Z,99270.50
2017-12-30T19:11:02.862Z,99266.80
2017-12-30T19:13:30.609Z,99259.48
2017-12-30T19:15:58.277Z,99266.81
2017-12-30T19:18:25.899Z,99255.60
2017-12-30T19:20:53.466Z,99256.45
2017-12-30T19:23:21.063Z,99250.98
2017-12-30T19:25:48.639Z,99265.14
2017-12-30T19:28:16.212Z,99253.32
2017-12-30T19:30:44.808Z,99256.44
2017-12-30T19:33:12.588Z,99257.36
2017-12-30T19:35:41.106Z,99257.83
2017-12-30T19:38:08.779Z,99251.03
2017-12-30T19:40:36.450Z,99244.39
2017-12-30T19:43:06.935Z,99239.34
2017-12-30T19:45:34.535Z,99240.64
2017-12-30T19:48:02.299Z,99236.23
2017-12-30T19:50:29.957Z,99219.73
2017-12-30T19:52:57.794Z,99225.70
2017-12-30T19:55:26.082Z,99212.82
2017-12-30T19:57:54.261Z,99225.33
2017-12-30T20:00:21.894Z,99232.42
2017-12-30T20:02:49.617Z,99236.05
2017-12-30T20:05:17.272Z,99241.19
2017-12-30T20:07:44.955Z,99241.97
2017-12-30T20:10:12.644Z,99253.34
2017-12-30T20:12:40.375Z,99240.73
2017-12-30T20:15:08.048Z,99253.08
2017-12-30T20:17:36.452Z,99258.47
2017-12-30T20:20:05.765Z,99253.32
2017-12-30T20:22:33.339Z,99242.69
2017-12-30T20:25:00.951Z,99242.59
2017-12-30T20:27:28.598Z,99251.45
2017-12-30T20:29:56.208Z,99255.44
2017-12-30T20:32:23.779Z,99243.30
2017-12-30T20:34:51.383Z,99245.39
2017-12-30T20:37:19.042Z,99243.58
2017-12-30T20:39:47.479Z,99246.45
2017-12-30T20:42:15.051Z,99241.47
2017-12-30T20:44:42.622Z,99236.11
2017-12-30T20:47:11.024Z,99242.81
2017-12-30T20:49:40.378Z,99240.53
2017-12-30T20:52:08.971Z,99249.44
2017-12-30T20:54:37.615Z,99244.92
2017-12-30T20:57:05.208Z,99252.66
2017-12-30T20:59:32.858Z,99259.39
2017-12-30T21:02:00.463Z,99264.72
2017-12-30T21:04:29.179Z,99263.61
2017-12-30T21:06:57.731Z,99269.28
2017-12-30T21:09:26.007Z,99257.98
2017-12-30T21:11:53.602Z,99262.41
2017-12-30T21:14:21.257Z,99257.97
2017-12-30T21:16:48.918Z,99246.24
2017-12-30T21:19:16.953Z,99252.97
2017-12-30T21:21:44.695Z,99249.57
2017-12-30T21:24:12.269Z,99234.26
2017-12-30T21:26:39.844Z,99226.73
2017-12-30T21:29:07.805Z,99232.97
2017-12-30T21:31:35.446Z,99241.42
2017-12-30T21:34:03.894Z,99242.78
2017-12-30T21:36:31.486Z,99255.88
2017-12-30T21:39:00.284Z,99250.48
2017-12-30T21:41:28.047Z,99264.20
2017-12-30T21:43:56.515Z,99263.50
2017-12-30T21:46:24.083Z,99271.00
2017-12-30T21:48:51.706Z,99270.99
2017-12-30T21:51:19.278Z,99266.41
2017-12-30T21:53:46.846Z,99249.88
2017-12-30T21:56:14.458Z,99250.88
2017-12-30T21:58:42.169Z,99250.75
2017-12-30T22:01:09.986Z,99256.03
2017-12-30T22:03:37.647Z,99259.52
2017-12-30T22:06:06.176Z,99259.53
2017-12-30T22:08:34.630Z,99264.59
2017-12-30T22:11:02.207Z,99276.48
2017-12-30T22:13:29.783Z,99276.15
2017-12-30T22:15:57.559Z,99277.98
2017-12-30T22:18:25.136Z,99289.66
2017-12-30T22:20:52.804Z,99301.92
2017-12-30T22:23:20.431Z,99289.51
2017-12-30T22:25:48.153Z,99297.33
2017-12-30T22:28:16.524Z,99290.76
2017-12-30T22:30:44.145Z,99296.52
2017-12-30T22:33:11.736Z,99308.72
2017-12-30T22:35:39.468Z,99302.28
2017-12-30T22:38:07.811Z,99302.55
2017-12-30T22:40:35.431Z,99320.45
2017-12-30T22:43:07.008Z,99316.48
2017-12-30T22:45:34.619Z,99331.92
2017-12-30T22:48:02.278Z,99345.45
2017-12-30T22:50:30.055Z,99349.38
2017-12-30T22:52:57.628Z,99355.75
2017-12-30T22:55:25.306Z,99364.20
2017-12-30T22:57:52.923Z,99374.09
2017-12-30T23:00:29.193Z,99367.63
2017-12-30T23:02:56.802Z,99378.21
2017-12-30T23:05:24.408Z,99380.44
2017-12-30T23:07:52.456Z,99398.77
2017-12-30T23:10:20.840Z,99413.80
2017-12-30T23:12:48.637Z,99407.91
2017-12-30T23:15:16.288Z,99416.96
2017-12-30T23:17:43.869Z,99414.53
2017-12-30T23:20:11.537Z,99421.24
2017-12-30T23:22:39.097Z,99431.59
2017-12-30T23:25:06.820Z,99424.67
2017-12-30T23:27:34.461Z,99424.43
2017-12-30T23:30:02.061Z,99422.56
2017-12-30T23:32:29.654Z,99429.55
2017-12-30T23:34:57.318Z,99440.63
2017-12-30T23:37:24.909Z,99452.79
2017-12-30T23:39:52.474Z,99439.05
2017-12-30T23:42:20.034Z,99456.23
2017-12-30T23:44:48.455Z,99474.97
2017-12-30T23:47:16.057Z,99477.36
2017-12-30T23:49:43.626Z,99483.83
2017-12-30T23:52:11.198Z,99481.14
2017-12-30T23:54:38.762Z,99485.42
2017-12-30T23:57:06.377Z,99480.88
2017-12-30T23:59:34.050Z,99479.38
